Time;durP1;ratioP1;P1;durP2;ratioP2;P2;SDS_P1;SDS_P2;PMS_P1;PMS_P2;Temp;Humidity;BMP_temperature;BMP_pressure;BME280_temperature;BME280_humidity;BME280_pressure;Samples;Min_cycle;Max_cycle;Signal;HPM_P1;HPM_P2
2022/05/09 00:00:17;;;;;;;22.50;9.30;;;;;;;39.05;42.93;100893.38;5070721;28;20472;-71
2022/05/09 00:02:43;;;;;;;11.40;7.50;;;;;;;39.05;42.12;100890.66;5070977;28;20579;-71
2022/05/09 00:05:13;;;;;;;11.37;7.50;;;;;;;38.99;42.20;100889.19;5070368;28;20504;-71
2022/05/09 00:07:39;;;;;;;11.17;7.37;;;;;;;38.94;41.84;100895.56;5070804;28;20979;-71
2022/05/09 00:10:06;;;;;;;14.20;7.60;;;;;;;39.07;42.10;100888.44;5070707;28;20844;-71
2022/05/09 00:12:32;;;;;;;12.50;7.20;;;;;;;38.90;42.73;100882.91;5070770;28;20487;-71
2022/05/09 00:14:58;;;;;;;12.73;6.67;;;;;;;39.01;42.17;100889.69;5070704;28;20422;-71
2022/05/09 00:17:24;;;;;;;15.10;8.47;;;;;;;39.11;41.60;100881.28;5071651;28;20457;-71
2022/05/09 00:19:50;;;;;;;13.13;7.00;;;;;;;39.07;41.85;100883.00;5070694;28;20445;-70
2022/05/09 00:22:16;;;;;;;12.57;6.63;;;;;;;39.21;42.10;100875.56;5070669;28;20441;-70
2022/05/09 00:24:42;;;;;;;10.77;6.80;;;;;;;39.21;42.15;100881.00;5070578;28;20517;-71
2022/05/09 00:27:08;;;;;;;9.60;5.73;;;;;;;39.08;42.02;100875.66;5070433;28;20546;-71
2022/05/09 00:29:34;;;;;;;11.40;7.77;;;;;;;39.08;41.90;100867.53;5070443;28;20413;-71
2022/05/09 00:32:00;;;;;;;11.97;7.07;;;;;;;39.09;42.04;100866.41;5070464;28;20438;-71
2022/05/09 00:34:26;;;;;;;9.50;5.67;;;;;;;39.00;42.59;100862.88;5070504;28;20934;-71
2022/05/09 00:36:55;;;;;;;12.97;6.83;;;;;;;39.04;42.40;100867.38;5069105;28;20407;-71
2022/05/09 00:39:22;;;;;;;11.27;6.80;;;;;;;39.09;42.09;100853.63;5050466;28;20465;-71
2022/05/09 00:41:48;;;;;;;9.83;6.20;;;;;;;39.05;42.41;100860.03;5050328;28;20442;-71
2022/05/09 00:44:26;;;;;;;13.00;7.50;;;;;;;39.02;42.38;100855.22;5050454;28;20462;-71
2022/05/09 00:46:54;;;;;;;10.47;6.50;;;;;;;39.04;42.35;100848.38;5050255;28;20473;-70
2022/05/09 00:49:45;;;;;;;13.10;7.60;;;;;;;39.05;42.66;100846.47;5050405;28;20423;-69
2022/05/09 00:52:25;;;;;;;9.83;6.13;;;;;;;39.03;42.63;100854.09;5050250;28;20469;-69
2022/05/09 00:55:15;;;;;;;14.20;6.80;;;;;;;39.06;42.42;100848.84;5053743;28;20414;-71
2022/05/09 00:58:00;;;;;;;9.60;5.73;;;;;;;39.23;42.61;100848.16;5053948;28;20421;-72
2022/05/09 01:00:26;;;;;;;12.63;7.13;;;;;;;38.90;42.87;100847.66;5054219;28;20410;-69
2022/05/09 01:02:59;;;;;;;18.07;7.63;;;;;;;38.89;42.68;100844.16;5054108;28;20410;-71
2022/05/09 01:05:29;;;;;;;10.93;7.17;;;;;;;39.04;42.56;100850.25;5054172;28;20441;-71
2022/05/09 01:07:56;;;;;;;14.83;8.83;;;;;;;39.02;42.30;100844.34;5054015;28;20503;-71
2022/05/09 01:10:27;;;;;;;12.73;6.77;;;;;;;39.16;42.07;100850.50;5054113;28;20512;-71
2022/05/09 01:12:54;;;;;;;15.37;6.83;;;;;;;39.17;42.23;100847.47;5053968;28;20418;-72
2022/05/09 01:15:20;;;;;;;10.60;6.87;;;;;;;39.29;42.11;100848.75;5053739;28;20853;-71
2022/05/09 01:17:48;;;;;;;14.50;7.90;;;;;;;39.31;41.49;100843.84;5053676;28;20519;-71
2022/05/09 01:20:15;;;;;;;17.37;7.10;;;;;;;39.21;41.73;100839.50;5053790;28;20415;-71
2022/05/09 01:22:43;;;;;;;10.90;6.40;;;;;;;39.19;41.77;100833.59;5053695;28;20427;-71
2022/05/09 01:25:12;;;;;;;17.40;7.33;;;;;;;39.10;41.84;100841.69;5053822;28;20411;-70
2022/05/09 01:27:41;;;;;;;13.70;6.07;;;;;;;39.10;41.71;100836.28;5054872;28;20470;-70
2022/05/09 01:30:22;;;;;;;16.63;6.70;;;;;;;38.84;42.58;100829.94;5053205;28;20434;-71
2022/05/09 01:33:00;;;;;;;21.60;6.70;;;;;;;39.06;42.49;100829.06;5053603;28;20928;-71
2022/05/09 01:35:42;;;;;;;15.13;7.70;;;;;;;39.17;42.47;100830.41;5053795;28;20454;-70
2022/05/09 01:38:23;;;;;;;15.73;6.57;;;;;;;39.26;42.22;100831.22;5053592;28;20410;-70
2022/05/09 01:40:49;;;;;;;17.50;8.40;;;;;;;39.07;42.54;100830.66;5053465;28;20442;-69
2022/05/09 01:43:38;;;;;;;14.33;6.60;;;;;;;39.09;42.10;100829.22;5054754;28;20478;-70
2022/05/09 01:46:08;;;;;;;15.70;7.00;;;;;;;39.07;41.64;100822.53;5053317;28;20497;-70
2022/05/09 01:51:19;;;;;;;16.77;9.43;;;;;;;39.05;41.82;100824.75;5054755;28;20386;-71
2022/05/09 01:53:50;;;;;;;17.10;9.07;;;;;;;39.01;41.98;100819.16;5053134;28;20417;-71
2022/05/09 01:56:18;;;;;;;16.17;9.23;;;;;;;38.88;41.70;100809.22;5053078;28;20418;-72
2022/05/09 01:58:44;;;;;;;17.87;8.07;;;;;;;38.94;41.80;100816.09;5053201;28;20923;-71
2022/05/09 02:01:11;;;;;;;12.80;8.40;;;;;;;38.97;41.75;100808.13;5053125;28;20415;-71
2022/05/09 02:03:37;;;;;;;12.03;8.23;;;;;;;38.86;41.90;100806.03;5053337;28;20415;-70
2022/05/09 02:06:03;;;;;;;17.10;8.77;;;;;;;38.81;42.30;100804.25;5052598;28;20501;-71
2022/05/09 02:08:30;;;;;;;15.63;7.80;;;;;;;38.81;42.37;100809.69;5052901;28;20908;-71
2022/05/09 02:10:56;;;;;;;19.23;8.27;;;;;;;38.82;42.61;100799.63;5072326;28;20640;-72
2022/05/09 02:13:22;;;;;;;21.27;9.80;;;;;;;38.62;42.98;100801.75;5074123;28;20405;-71
2022/05/09 02:15:48;;;;;;;14.07;9.13;;;;;;;38.85;42.44;100799.00;5072851;28;20414;-72
2022/05/09 02:18:14;;;;;;;17.77;8.60;;;;;;;38.88;42.48;100798.38;5072346;28;20473;-71
2022/05/09 02:20:41;;;;;;;14.17;8.23;;;;;;;38.81;42.25;100789.91;5072722;28;20430;-70
2022/05/09 02:23:07;;;;;;;15.57;9.00;;;;;;;38.90;42.01;100788.78;5072772;28;20414;-71
2022/05/09 02:25:35;;;;;;;17.93;9.77;;;;;;;38.70;42.66;100787.44;5072627;28;20438;-69
2022/05/09 02:28:06;;;;;;;14.67;7.80;;;;;;;38.73;42.70;100786.03;5072587;28;20449;-69
2022/05/09 02:30:33;;;;;;;12.17;8.23;;;;;;;38.49;43.10;100791.00;5073885;28;20394;-71
2022/05/09 02:32:59;;;;;;;13.93;6.97;;;;;;;38.72;42.89;100784.44;5060181;28;20413;-69
2022/05/09 02:35:25;;;;;;;14.77;7.57;;;;;;;38.68;42.94;100786.97;5051865;28;20398;-70
2022/05/09 02:37:54;;;;;;;12.53;6.97;;;;;;;38.77;42.92;100799.78;5053662;28;20391;-69
2022/05/09 02:40:24;;;;;;;14.43;7.90;;;;;;;38.84;42.90;100797.41;5052452;28;20954;-71
2022/05/09 02:42:51;;;;;;;17.33;9.70;;;;;;;38.90;42.80;100799.66;5052228;28;20964;-70
2022/05/09 02:45:17;;;;;;;11.43;6.43;;;;;;;38.70;43.23;100803.69;5053641;28;20399;-72
2022/05/09 02:47:43;;;;;;;13.93;6.60;;;;;;;38.93;42.77;100812.59;5052193;28;20474;-71
2022/05/09 02:50:10;;;;;;;12.23;7.43;;;;;;;38.87;43.10;100813.84;5052244;28;20445;-71
2022/05/09 02:52:37;;;;;;;16.27;7.33;;;;;;;38.72;43.42;100813.47;5052230;28;20449;-70
2022/05/09 02:55:09;;;;;;;16.47;8.57;;;;;;;38.88;42.77;100811.94;5053388;28;20409;-71
2022/05/09 02:57:36;;;;;;;13.33;7.70;;;;;;;38.86;42.90;100816.88;5052313;28;20422;-71
2022/05/09 03:00:10;;;;;;;15.60;7.80;;;;;;;38.74;43.18;100817.47;5051844;28;20486;-71
2022/05/09 03:02:37;;;;;;;13.27;7.70;;;;;;;38.99;42.58;100823.31;5051979;28;20415;-71
2022/05/09 03:05:04;;;;;;;13.10;7.43;;;;;;;38.88;42.87;100822.78;5051746;28;20441;-70
2022/05/09 03:07:30;;;;;;;15.10;7.87;;;;;;;39.03;42.67;100835.09;5053149;28;20438;-70
2022/05/09 03:09:56;;;;;;;13.00;7.07;;;;;;;39.01;43.05;100832.72;5051959;28;20960;-70
2022/05/09 03:12:22;;;;;;;22.27;8.07;;;;;;;39.11;42.90;100842.50;5051649;28;20421;-71
2022/05/09 03:14:49;;;;;;;18.37;7.80;;;;;;;38.99;43.22;100850.44;5051550;28;20435;-71
2022/05/09 03:17:15;;;;;;;15.53;6.77;;;;;;;38.98;43.29;100849.63;5050447;28;20484;-72
2022/05/09 03:19:42;;;;;;;14.17;7.47;;;;;;;38.80;43.62;100854.19;5051669;28;20771;-69
2022/05/09 03:22:08;;;;;;;15.90;6.73;;;;;;;38.77;43.47;100843.16;5051574;28;20450;-69
2022/05/09 03:24:35;;;;;;;10.00;7.20;;;;;;;38.76;43.66;100845.06;5051509;28;20470;-69
2022/05/09 03:27:04;;;;;;;15.07;7.40;;;;;;;38.89;43.37;100854.22;5051247;28;20458;-71
2022/05/09 03:29:31;;;;;;;19.83;7.73;;;;;;;38.88;43.60;100853.41;5051452;28;20423;-71
2022/05/09 03:31:57;;;;;;;10.00;6.80;;;;;;;38.89;43.45;100870.47;5051404;28;20422;-72
2022/05/09 03:34:23;;;;;;;17.60;7.70;;;;;;;38.83;43.19;100864.38;5052603;28;20538;-70
2022/05/09 03:36:54;;;;;;;11.60;7.60;;;;;;;38.57;43.55;100871.56;5051299;28;20417;-69
2022/05/09 03:39:20;;;;;;;20.17;6.90;;;;;;;38.63;43.62;100871.13;5052539;28;20442;-70
2022/05/09 03:41:46;;;;;;;15.20;7.67;;;;;;;38.66;42.95;100873.19;5051169;28;20453;-70
2022/05/09 03:44:12;;;;;;;9.40;6.80;;;;;;;38.35;43.39;100883.22;5052530;28;20923;-69
2022/05/09 03:46:38;;;;;;;9.67;6.30;;;;;;;38.37;43.25;100872.88;5052472;28;20465;-69
2022/05/09 03:49:04;;;;;;;18.80;8.00;;;;;;;38.70;42.95;100878.81;5051083;28;20430;-69
2022/05/09 03:51:31;;;;;;;13.57;7.23;;;;;;;38.75;42.63;100875.22;5051130;28;20419;-69
2022/05/09 03:53:57;;;;;;;18.63;8.20;;;;;;;38.58;43.05;100884.81;5050834;28;20442;-69
2022/05/09 03:56:23;;;;;;;14.00;6.40;;;;;;;38.62;42.98;100890.41;5052362;28;20776;-69
2022/05/09 03:58:49;;;;;;;9.93;7.47;;;;;;;38.56;43.50;100889.75;5050990;28;20433;-71
2022/05/09 04:01:15;;;;;;;12.47;7.97;;;;;;;38.22;44.17;100897.59;5050722;28;20410;-71
2022/05/09 04:03:41;;;;;;;13.80;7.13;;;;;;;38.26;44.74;100896.72;5051153;28;20452;-70
2022/05/09 04:06:08;;;;;;;13.50;9.67;;;;;;;38.26;44.33;100907.56;5050611;28;20415;-70
2022/05/09 04:08:34;;;;;;;16.80;11.20;;;;;;;38.62;43.62;100915.63;5061122;28;20896;-70
2022/05/09 04:11:00;;;;;;;15.50;9.70;;;;;;;38.42;44.31;100910.69;5070923;28;20471;-70
2022/05/09 04:13:26;;;;;;;13.40;9.87;;;;;;;38.52;44.06;100913.16;5070686;28;21003;-69
2022/05/09 04:18:40;;;;;;;19.30;10.90;;;;;;;38.37;44.27;100918.97;5071719;28;20456;-69
2022/05/09 04:21:07;;;;;;;20.67;11.87;;;;;;;38.27;44.45;100922.69;5070590;28;20433;-69
2022/05/09 04:23:34;;;;;;;18.87;11.80;;;;;;;38.11;44.75;100927.63;5062674;28;20422;-71
2022/05/09 04:26:01;;;;;;;19.57;13.47;;;;;;;38.10;44.85;100927.94;5051033;28;20476;-71
2022/05/09 04:28:27;;;;;;;24.57;13.03;;;;;;;38.09;44.80;100923.63;5050197;28;20454;-70
2022/05/09 04:30:53;;;;;;;14.53;13.30;;;;;;;37.96;45.20;100927.97;5051880;28;20861;-70
2022/05/09 04:33:20;;;;;;;18.07;12.27;;;;;;;38.00;44.98;100929.00;5050686;28;20434;-69
2022/05/09 04:35:46;;;;;;;23.90;13.10;;;;;;;38.11;44.69;100932.25;5050536;28;20457;-71
2022/05/09 04:38:21;;;;;;;27.33;13.90;;;;;;;38.09;44.87;100932.56;5050437;28;20461;-71
2022/05/09 04:40:51;;;;;;;32.23;22.43;;;;;;;38.04;45.14;100929.16;5051699;28;20838;-71
2022/05/09 04:43:23;;;;;;;27.30;18.70;;;;;;;37.94;45.34;100927.50;5050581;28;20409;-69
2022/05/09 04:45:49;;;;;;;23.30;15.57;;;;;;;37.90;45.51;100935.41;5051762;28;20391;-70
2022/05/09 04:48:21;;;;;;;23.83;14.57;;;;;;;37.92;45.76;100940.50;5050442;28;20451;-70
2022/05/09 04:50:48;;;;;;;19.20;12.87;;;;;;;37.90;45.80;100934.63;5051776;28;20427;-71
2022/05/09 04:53:16;;;;;;;15.70;13.37;;;;;;;37.91;45.63;100934.31;5050415;28;20403;-71
2022/05/09 04:55:42;;;;;;;25.80;15.83;;;;;;;37.96;45.17;100936.09;5050415;28;20411;-71
2022/05/09 04:58:12;;;;;;;21.80;15.67;;;;;;;38.05;45.28;100939.69;5050336;28;20395;-69
2022/05/09 05:00:39;;;;;;;21.63;16.77;;;;;;;37.92;45.44;100937.81;5050393;28;20425;-69
2022/05/09 05:03:05;;;;;;;22.77;15.47;;;;;;;37.82;45.71;100929.94;5050227;28;20905;-71
2022/05/09 05:05:31;;;;;;;19.30;14.00;;;;;;;38.08;45.22;100943.69;5050351;28;20936;-71
2022/05/09 05:07:58;;;;;;;20.97;14.57;;;;;;;37.61;46.35;100946.53;5050181;28;20534;-69
2022/05/09 05:10:26;;;;;;;22.67;14.70;;;;;;;37.77;45.79;100946.25;5050238;28;20955;-69
2022/05/09 05:12:52;;;;;;;19.00;15.30;;;;;;;37.94;45.13;100946.44;5051570;28;20398;-71
2022/05/09 05:15:18;;;;;;;26.80;15.10;;;;;;;37.98;45.59;100954.75;5051466;28;20395;-71
2022/05/09 05:17:44;;;;;;;17.20;13.60;;;;;;;37.89;45.25;100968.22;5049909;28;20836;-70
2022/05/09 05:20:14;;;;;;;17.90;12.87;;;;;;;37.91;45.70;100974.13;5050132;28;20773;-69
2022/05/09 05:22:43;;;;;;;29.17;16.77;;;;;;;37.79;45.82;100965.69;5049905;28;20415;-69
2022/05/09 05:25:12;;;;;;;22.00;18.00;;;;;;;37.94;45.75;100976.25;5050156;28;20465;-70
2022/05/09 05:27:38;;;;;;;20.63;18.30;;;;;;;37.95;45.41;100972.41;5049965;28;20473;-71
2022/05/09 05:30:06;;;;;;;25.50;17.97;;;;;;;37.83;45.63;100988.38;5055128;28;20423;-69
2022/05/09 05:32:36;;;;;;;27.70;20.17;;;;;;;37.99;45.46;100991.56;5051051;28;20896;-69
2022/05/09 05:35:07;;;;;;;23.03;19.77;;;;;;;37.79;45.89;100996.25;5050077;28;20493;-69
2022/05/09 05:37:34;;;;;;;21.60;18.57;;;;;;;37.97;45.24;100997.28;5053493;28;20949;-69
2022/05/09 05:40:01;;;;;;;24.90;19.50;;;;;;;38.05;44.77;100993.84;5059937;28;20410;-68
2022/05/09 05:42:28;;;;;;;35.17;20.47;;;;;;;38.09;44.94;100988.63;5053991;28;20426;-69
2022/05/09 05:44:54;;;;;;;25.87;18.67;;;;;;;37.73;45.75;100981.22;5053369;28;20438;-72
2022/05/09 05:47:22;;;;;;;25.53;18.30;;;;;;;37.94;44.92;100986.25;5053446;28;20442;-70
2022/05/09 05:49:49;;;;;;;29.53;17.10;;;;;;;37.99;45.22;100995.06;5053457;28;20414;-69
2022/05/09 05:52:15;;;;;;;20.40;17.07;;;;;;;38.09;45.03;100997.56;5058143;28;20480;-69
2022/05/09 05:54:44;;;;;;;27.27;18.53;;;;;;;38.06;44.89;101003.59;5073392;28;20444;-68
2022/05/09 05:57:24;;;;;;;26.00;17.10;;;;;;;38.24;44.49;101011.88;5074608;28;20892;-73
2022/05/09 05:59:53;;;;;;;32.50;19.30;;;;;;;38.11;44.79;101005.38;5074587;28;20401;-72
2022/05/09 06:02:19;;;;;;;29.73;17.50;;;;;;;38.07;44.83;101002.50;5073060;28;20560;-70
2022/05/09 06:04:46;;;;;;;24.67;17.37;;;;;;;38.17;44.73;101007.66;5073259;28;20418;-70
2022/05/09 06:07:13;;;;;;;34.53;20.30;;;;;;;38.31;44.30;101007.69;5074295;28;20437;-70
2022/05/09 06:09:41;;;;;;;25.53;18.23;;;;;;;37.99;45.00;101015.94;5065438;28;20407;-70
2022/05/09 06:12:08;;;;;;;22.90;17.03;;;;;;;37.95;44.75;101018.47;5062456;28;20502;-72
2022/05/09 06:14:34;;;;;;;39.50;17.87;;;;;;;38.20;44.46;101022.53;5067735;28;20418;-69
2022/05/09 06:17:00;;;;;;;23.57;14.80;;;;;;;37.83;45.24;101018.97;5063956;28;20418;-69
2022/05/09 06:19:26;;;;;;;30.47;15.53;;;;;;;37.80;45.58;101018.72;5045847;28;20535;-72
2022/05/09 06:21:52;;;;;;;24.03;15.37;;;;;;;37.86;45.57;101018.34;5022125;28;20534;-69
2022/05/09 06:24:18;;;;;;;20.20;14.87;;;;;;;38.05;44.76;101026.34;5030174;28;20444;-70
2022/05/09 06:26:45;;;;;;;20.80;14.40;;;;;;;37.94;45.42;101026.88;5013110;28;20455;-71
2022/05/09 06:29:11;;;;;;;20.83;15.47;;;;;;;37.92;45.46;101030.69;5011715;28;20456;-69
2022/05/09 06:31:38;;;;;;;31.20;18.10;;;;;;;38.09;44.81;101019.22;5012333;28;20400;-71
2022/05/09 06:34:06;;;;;;;33.90;20.30;;;;;;;38.23;44.64;101018.41;5011042;28;20436;-74
2022/05/09 06:36:34;;;;;;;22.97;16.53;;;;;;;38.37;44.27;101016.50;5012672;28;20459;-71
2022/05/09 06:39:01;;;;;;;29.90;18.60;;;;;;;38.14;45.02;101010.19;5011396;28;20420;-70
2022/05/09 06:41:27;;;;;;;22.77;18.20;;;;;;;37.82;45.63;101011.94;5025263;28;20469;-69
2022/05/09 06:43:53;;;;;;;34.33;16.60;;;;;;;37.62;45.86;101006.88;5027743;28;20431;-69
2022/05/09 06:46:19;;;;;;;25.73;18.50;;;;;;;37.54;45.94;100999.47;5031084;28;20446;-69
2022/05/09 06:48:45;;;;;;;26.27;16.23;;;;;;;37.25;46.88;100997.81;5032945;28;20847;-68
2022/05/09 06:51:11;;;;;;;22.80;16.37;;;;;;;37.38;46.64;101001.66;5028716;28;20416;-69
2022/05/09 06:53:37;;;;;;;25.87;17.17;;;;;;;37.14;47.27;101012.63;5012312;28;20413;-71
2022/05/09 06:56:04;;;;;;;26.57;21.90;;;;;;;37.36;46.71;101015.50;5015876;28;20779;-71
2022/05/09 06:58:31;;;;;;;25.40;18.20;;;;;;;37.16;47.40;101017.75;5021885;28;20419;-69
2022/05/09 07:00:57;;;;;;;22.77;16.30;;;;;;;37.24;47.22;101033.28;5023942;28;20495;-69
2022/05/09 07:03:25;;;;;;;27.87;17.73;;;;;;;37.15;46.85;101043.19;5032323;28;20422;-73
2022/05/09 07:05:52;;;;;;;20.70;16.20;;;;;;;37.43;47.14;101057.59;5026793;28;20452;-69
2022/05/09 07:08:22;;;;;;;23.63;15.57;;;;;;;37.23;47.50;101048.72;5023454;28;20456;-69
2022/05/09 07:10:48;;;;;;;21.50;15.60;;;;;;;37.35;47.08;101057.19;5018944;28;20423;-71
2022/05/09 07:13:14;;;;;;;23.73;17.20;;;;;;;37.41;46.72;101054.38;5027478;28;20811;-72
2022/05/09 07:15:40;;;;;;;23.13;15.20;;;;;;;37.26;47.38;101056.25;5022400;28;20942;-72
2022/05/09 07:18:06;;;;;;;25.50;14.80;;;;;;;37.12;47.67;101060.78;5038970;28;20458;-71
2022/05/09 07:20:34;;;;;;;24.33;15.30;;;;;;;37.23;47.52;101077.66;5059998;28;21087;-69
2022/05/09 07:23:10;;;;;;;26.77;17.30;;;;;;;37.88;46.09;101093.88;5059688;28;20512;-70
2022/05/09 07:25:37;;;;;;;22.63;16.20;;;;;;;38.08;46.11;101101.59;5068181;28;20410;-70
2022/05/09 07:28:04;;;;;;;21.90;15.07;;;;;;;38.22;45.37;101101.59;5056841;28;20450;-70
2022/05/09 07:30:30;;;;;;;19.67;14.33;;;;;;;38.03;45.94;101098.19;5059998;28;20502;-70
2022/05/09 07:32:56;;;;;;;26.47;15.50;;;;;;;37.87;46.07;101106.59;5058648;28;20475;-70
2022/05/09 07:35:23;;;;;;;27.50;17.20;;;;;;;37.81;46.36;101120.53;5062219;28;20829;-70
2022/05/09 07:37:50;;;;;;;25.73;15.97;;;;;;;37.96;45.98;101122.97;5060985;28;20407;-70
2022/05/09 07:40:18;;;;;;;26.20;13.23;;;;;;;37.90;45.95;101130.38;5059175;28;20450;-69
2022/05/09 07:42:46;;;;;;;21.33;14.23;;;;;;;38.27;44.97;101131.31;5055990;28;20454;-70
2022/05/09 07:45:15;;;;;;;21.17;14.60;;;;;;;38.27;45.02;101136.75;5059048;28;20418;-70
2022/05/09 07:47:41;;;;;;;44.13;17.10;;;;;;;38.18;45.41;101135.78;5058667;28;20454;-69
2022/05/09 07:50:09;;;;;;;23.23;14.90;;;;;;;38.10;45.38;101139.22;5059049;28;20475;-70
2022/05/09 07:52:35;;;;;;;21.63;15.40;;;;;;;38.13;45.50;101152.97;5067024;28;20943;-70
2022/05/09 07:55:01;;;;;;;19.73;15.60;;;;;;;37.98;45.84;101161.38;5070572;28;20923;-70
2022/05/09 07:57:28;;;;;;;28.53;17.83;;;;;;;38.30;45.35;101157.81;5065130;28;20424;-70
2022/05/09 07:59:54;;;;;;;23.87;16.67;;;;;;;38.43;44.87;101157.03;5071036;28;20421;-70
2022/05/09 08:02:20;;;;;;;22.73;15.27;;;;;;;38.52;44.70;101153.59;5071131;28;20406;-72
2022/05/09 08:04:46;;;;;;;18.63;12.67;;;;;;;38.67;44.21;101153.25;5070592;28;20453;-70
2022/05/09 08:07:13;;;;;;;19.40;13.30;;;;;;;38.58;44.17;101153.16;5070900;28;20497;-69
2022/05/09 08:09:39;;;;;;;20.77;14.77;;;;;;;38.62;43.96;101150.66;5070940;28;20488;-69
2022/05/09 08:12:06;;;;;;;21.60;13.93;;;;;;;38.78;43.86;101145.72;5063033;28;20798;-70
2022/05/09 08:14:32;;;;;;;15.33;11.00;;;;;;;38.75;43.64;101139.00;5051942;28;20786;-68
2022/05/09 08:17:00;;;;;;;22.40;12.00;;;;;;;38.82;43.50;101135.88;5070530;28;20452;-70
2022/05/09 08:19:29;;;;;;;18.27;12.53;;;;;;;38.99;42.58;101136.03;5070571;28;20557;-69
2022/05/09 08:21:55;;;;;;;18.93;10.53;;;;;;;39.04;42.80;101126.94;5070047;28;20424;-71
2022/05/09 08:24:24;;;;;;;21.03;15.70;;;;;;;38.90;43.19;101135.16;5070520;28;20532;-69
2022/05/09 08:26:50;;;;;;;17.57;13.63;;;;;;;39.10;42.67;101150.13;5063850;28;20473;-69
2022/05/09 08:29:16;;;;;;;58.47;40.17;;;;;;;39.20;42.74;101142.59;5059413;28;20453;-69
2022/05/09 08:31:42;;;;;;;33.23;23.10;;;;;;;38.71;43.07;101156.97;5066453;28;20425;-69
2022/05/09 08:34:08;;;;;;;32.67;20.53;;;;;;;38.89;42.98;101153.31;5058749;28;20450;-69
2022/05/09 08:36:48;;;;;;;19.80;15.00;;;;;;;39.04;42.28;101154.91;5061357;28;20429;-69
2022/05/09 08:39:15;;;;;;;21.37;15.67;;;;;;;39.22;42.04;101161.28;5060031;28;20846;-69
2022/05/09 08:42:00;;;;;;;27.93;17.10;;;;;;;39.25;41.86;101154.44;5063670;28;20975;-69
2022/05/09 08:44:57;;;;;;;32.07;17.80;;;;;;;39.31;42.09;101148.59;5082532;28;20489;-69
2022/05/09 08:47:51;;;;;;;20.43;11.40;;;;;;;39.11;42.35;101154.47;5079557;28;20457;-69
2022/05/09 08:50:21;;;;;;;25.57;13.70;;;;;;;39.17;42.10;101140.50;5085244;28;20417;-69
2022/05/09 08:52:53;;;;;;;16.60;10.60;;;;;;;39.08;42.58;101134.19;5065717;28;20467;-69
2022/05/09 08:55:36;;;;;;;28.80;13.70;;;;;;;39.34;42.11;101141.72;5070168;28;20416;-71
2022/05/09 08:58:27;;;;;;;16.83;12.27;;;;;;;39.34;41.91;101150.66;5070427;28;20413;-70
2022/05/09 09:00:55;;;;;;;20.93;11.13;;;;;;;39.46;41.41;101155.53;5063497;28;20429;-70
2022/05/09 09:03:39;;;;;;;29.27;11.43;;;;;;;39.54;41.58;101165.66;5058070;28;20426;-69
2022/05/09 09:06:32;;;;;;;14.20;11.27;;;;;;;39.58;41.53;101163.13;5068423;28;20444;-71
2022/05/09 09:09:30;;;;;;;19.97;12.33;;;;;;;39.47;41.96;101165.28;5051286;28;20431;-70
2022/05/09 09:12:10;;;;;;;31.03;12.17;;;;;;;39.39;42.24;101168.75;5043503;28;20920;-68
2022/05/09 09:14:47;;;;;;;14.53;10.10;;;;;;;39.55;42.00;101177.31;5066739;28;20417;-69
2022/05/09 09:17:43;;;;;;;20.67;10.30;;;;;;;39.58;42.20;101185.63;5061529;28;20952;-69
2022/05/09 09:20:18;;;;;;;19.30;10.00;;;;;;;39.59;41.60;101186.44;5063536;28;20414;-69
2022/05/09 09:23:14;;;;;;;20.20;11.87;;;;;;;39.58;42.23;101191.06;5063272;28;21251;-69
2022/05/09 09:26:04;;;;;;;20.80;9.07;;;;;;;39.51;42.07;101193.41;5064349;28;20399;-67
2022/05/09 09:28:49;;;;;;;14.37;10.00;;;;;;;39.52;42.29;101191.50;5061197;28;20480;-68
2022/05/09 09:53:07;;;;;;;20.07;10.07;;;;;;;38.87;45.08;101196.22;5108041;27;20406;-68
2022/05/09 09:55:39;;;;;;;19.13;10.80;;;;;;;39.04;44.67;101206.44;5108128;28;20424;-68
2022/05/09 09:58:26;;;;;;;36.23;10.13;;;;;;;38.90;44.68;101206.47;5089101;28;20493;-69
2022/05/09 10:01:20;;;;;;;18.93;10.87;;;;;;;39.13;44.88;101210.03;5089427;28;20452;-68
2022/05/09 10:04:03;;;;;;;21.27;9.60;;;;;;;38.94;43.99;101212.88;5089421;28;20798;-70
2022/05/09 10:06:30;;;;;;;25.40;9.47;;;;;;;38.48;44.27;101213.00;5089655;28;20420;-68
2022/05/09 10:09:02;;;;;;;19.90;8.53;;;;;;;38.48;43.65;101231.97;5089339;28;20420;-71
2022/05/09 10:11:30;;;;;;;22.80;9.97;;;;;;;38.56;43.18;101225.88;5089450;28;20477;-71
2022/05/09 10:13:59;;;;;;;21.40;8.10;;;;;;;38.76;42.85;101219.25;5089275;28;20777;-71
2022/05/09 10:16:35;;;;;;;18.73;8.63;;;;;;;39.11;42.53;101208.75;5089086;28;20420;-72
2022/05/09 10:19:04;;;;;;;27.63;11.30;;;;;;;39.36;42.61;101202.75;5089109;28;20483;-71
2022/05/09 10:24:57;;;;;;;15.37;6.90;;;;;;;39.36;41.35;101213.59;5107357;28;20387;-70
2022/05/09 10:27:23;;;;;;;13.43;7.33;;;;;;;39.27;41.43;101217.34;5107217;28;20499;-71
2022/05/09 10:29:53;;;;;;;20.57;8.37;;;;;;;39.23;41.42;101217.97;5088848;28;20510;-71
2022/05/09 10:32:49;;;;;;;14.60;7.83;;;;;;;39.40;41.10;101216.50;5107300;28;20422;-71
2022/05/09 10:35:26;;;;;;;16.07;6.70;;;;;;;39.29;41.25;101220.53;5107765;28;20803;-71
2022/05/09 10:38:08;;;;;;;17.23;6.93;;;;;;;39.39;41.12;101214.88;5089772;28;20418;-72
2022/05/09 10:40:57;;;;;;;18.37;7.10;;;;;;;39.39;40.66;101206.75;5089086;28;20487;-72
2022/05/09 10:43:29;;;;;;;10.83;5.70;;;;;;;39.59;40.61;101200.00;5079271;28;21004;-72
2022/05/09 10:45:55;;;;;;;13.97;6.50;;;;;;;39.68;40.71;101199.00;5068793;28;20452;-71
2022/05/09 10:48:34;;;;;;;11.40;6.30;;;;;;;39.80;41.04;101203.06;5069204;28;20469;-71
2022/05/09 10:51:07;;;;;;;20.73;9.90;;;;;;;39.75;40.89;101196.63;5068946;28;20483;-71
2022/05/09 10:53:36;;;;;;;14.00;7.00;;;;;;;39.79;40.52;101190.59;5058771;28;20441;-71
2022/05/09 10:56:08;;;;;;;18.43;8.43;;;;;;;39.67;40.75;101178.38;5056116;28;20553;-71
2022/05/09 10:58:56;;;;;;;15.47;7.40;;;;;;;39.61;40.50;101170.69;5055801;28;20474;-71
2022/05/09 11:01:36;;;;;;;12.47;5.90;;;;;;;39.87;40.18;101168.91;5041918;28;20449;-74
2022/05/09 11:04:03;;;;;;;22.50;11.07;;;;;;;39.91;40.41;101172.59;5056269;28;20421;-72
2022/05/09 11:06:53;;;;;;;17.53;7.03;;;;;;;39.80;39.52;101171.25;5056309;28;20501;-72
2022/05/09 11:09:29;;;;;;;14.80;6.43;;;;;;;39.92;39.39;101165.25;5056294;28;20409;-74
2022/05/09 11:11:58;;;;;;;14.17;6.93;;;;;;;39.69;39.40;101162.56;5056157;28;20460;-74
2022/05/09 11:14:34;;;;;;;17.27;7.13;;;;;;;39.67;39.98;101172.16;5074262;28;20390;-72
2022/05/09 11:17:33;;;;;;;15.00;6.50;;;;;;;39.68;39.94;101168.31;5074226;28;20394;-72
2022/05/09 11:20:37;;;;;;;25.10;9.10;;;;;;;39.82;40.27;101146.50;5056082;28;20410;-73
2022/05/09 11:23:16;;;;;;;29.53;11.90;;;;;;;39.86;40.54;101137.41;5015200;28;20439;-73
2022/05/09 11:25:51;;;;;;;15.90;8.00;;;;;;;39.90;39.83;101145.72;5055475;28;20479;-78
2022/05/09 11:28:26;;;;;;;14.93;5.40;;;;;;;39.71;39.52;101148.69;5055888;28;20516;-78
2022/05/09 11:31:28;;;;;;;17.13;7.67;;;;;;;39.64;40.05;101138.25;5060499;23;20641;-78
2022/05/09 11:34:14;;;;;;;10.30;6.53;;;;;;;39.79;39.85;101137.06;5032454;28;20450;-72
2022/05/09 11:36:52;;;;;;;12.20;6.57;;;;;;;39.87;39.46;101116.50;5031251;28;20424;-72
2022/05/09 11:39:32;;;;;;;18.33;8.40;;;;;;;39.92;39.30;101110.91;5031134;28;20430;-73
2022/05/09 11:43:27;;;;;;;14.60;7.40;;;;;;;39.86;39.56;101114.88;5031718;28;20416;-72
2022/05/09 11:45:14;;;;;;;13.13;6.80;;;;;;;39.92;39.17;101103.56;5012581;28;20787;-72
2022/05/09 11:48:00;;;;;;;14.33;5.80;;;;;;;39.99;39.45;101103.91;5028656;28;20506;-73
2022/05/09 11:50:39;;;;;;;12.60;6.47;;;;;;;40.13;40.30;101092.16;5016238;28;20955;-73
2022/05/09 11:53:07;;;;;;;26.40;8.60;;;;;;;40.25;39.68;101095.84;5012511;28;20531;-73
2022/05/09 11:55:34;;;;;;;10.33;5.80;;;;;;;40.22;39.62;101082.13;5013830;28;20435;-76
2022/05/09 11:58:03;;;;;;;12.00;5.37;;;;;;;40.25;38.97;101082.25;5012480;28;20464;-76
2022/05/09 12:00:38;;;;;;;13.13;5.97;;;;;;;40.30;37.75;101081.31;5012426;28;20515;-73